createdAt,value
2018-04-23T00:01:13.174Z,100533.94
2018-04-23T00:06:14.493Z,100532.37
2018-04-23T00:11:15.810Z,100519.56
2018-04-23T00:16:17.113Z,100529.30
2018-04-23T00:21:18.426Z,100530.83
2018-04-23T00:26:19.755Z,100535.81
2018-04-23T00:31:21.795Z,100537.88
2018-04-23T00:36:23.099Z,100533.59
2018-04-23T00:41:24.403Z,100525.29
2018-04-23T00:46:25.705Z,100536.99
2018-04-23T00:51:27.018Z,100515.88
2018-04-23T00:56:29.055Z,100525.64
2018-04-23T01:01:30.370Z,100526.78
2018-04-23T01:06:31.673Z,100525.03
2018-04-23T01:11:32.974Z,100518.73
2018-04-23T01:16:34.298Z,100520.53
2018-04-23T01:21:35.597Z,100521.00
2018-04-23T01:26:36.950Z,100521.46
2018-04-23T01:31:38.247Z,100534.20
2018-04-23T01:36:40.285Z,100520.98
2018-04-23T01:41:41.610Z,100528.44
2018-04-23T01:46:42.930Z,100528.97
2018-04-23T01:51:44.988Z,100540.96
2018-04-23T01:56:46.308Z,100542.89
2018-04-23T02:01:48.376Z,100548.66
2018-04-23T02:06:49.680Z,100539.38
2018-04-23T02:11:50.982Z,100543.20
2018-04-23T02:16:52.298Z,100545.34
2018-04-23T02:21:54.343Z,100555.42
2018-04-23T02:26:55.641Z,100561.84
2018-04-23T02:31:57.039Z,100574.94
2018-04-23T02:36:58.370Z,100575.62
2018-04-23T02:42:00.422Z,100570.85
2018-04-23T02:47:01.737Z,100572.06
2018-04-23T02:52:03.054Z,100583.38
2018-04-23T02:57:05.118Z,100582.28
2018-04-23T03:02:06.530Z,100581.82
2018-04-23T03:07:07.867Z,100581.28
2018-04-23T03:12:09.176Z,100579.97
2018-04-23T03:17:10.485Z,100582.47
2018-04-23T03:22:11.802Z,100582.95
2018-04-23T03:27:13.103Z,100579.02
2018-04-23T03:32:15.186Z,100576.27
2018-04-23T03:37:16.506Z,100579.92
2018-04-23T03:42:18.566Z,100580.92
2018-04-23T03:47:19.883Z,100576.37
2018-04-23T03:52:21.239Z,100574.56
2018-04-23T03:57:22.522Z,100575.80
2018-04-23T04:02:23.843Z,100568.02
2018-04-23T04:07:25.194Z,100570.06
2018-04-23T04:12:44.973Z,100584.50
2018-04-23T04:23:52.391Z,100586.94
2018-04-23T04:28:53.715Z,100593.56
2018-04-23T04:33:55.026Z,100597.07
2018-04-23T04:38:56.309Z,100604.48
2018-04-23T04:43:57.672Z,100609.31
2018-04-23T04:48:58.934Z,100608.95
2018-04-23T04:54:00.234Z,100619.30
2018-04-23T04:59:01.582Z,100618.05
2018-04-23T05:04:02.886Z,100624.97
2018-04-23T05:09:04.934Z,100629.84
2018-04-23T05:14:06.226Z,100630.59
2018-04-23T05:19:07.531Z,100647.00
2018-04-23T05:24:08.848Z,100648.98
2018-04-23T05:29:10.154Z,100661.61
2018-04-23T05:34:12.235Z,100657.86
2018-04-23T05:39:13.535Z,100660.34
2018-04-23T05:44:14.902Z,100663.65
2018-04-23T05:49:16.177Z,100665.02
2018-04-23T05:54:17.488Z,100680.09
2018-04-23T05:59:18.803Z,100684.76
2018-04-23T06:04:20.861Z,100680.38
2018-04-23T06:09:22.169Z,100678.38
2018-04-23T06:14:23.509Z,100684.29
2018-04-23T06:19:24.823Z,100683.22
2018-04-23T06:24:26.146Z,100670.92
2018-04-23T06:29:27.449Z,100695.39
2018-04-23T06:34:29.498Z,100692.13
2018-04-23T06:39:30.838Z,100701.49
2018-04-23T06:44:32.143Z,100697.85
2018-04-23T06:49:34.181Z,100710.39
2018-04-23T06:54:35.510Z,100722.17
2018-04-23T06:59:36.839Z,100720.70
2018-04-23T07:04:38.139Z,100717.98
2018-04-23T07:09:39.490Z,100715.55
2018-04-23T07:14:40.802Z,100729.02
2018-04-23T07:19:42.151Z,100731.84
2018-04-23T07:24:43.466Z,100733.42
2018-04-23T07:29:45.531Z,100742.97
2018-04-23T07:34:46.894Z,100749.48
2018-04-23T07:39:48.903Z,100749.48
2018-04-23T07:44:50.206Z,100758.87
2018-04-23T07:49:51.522Z,100754.70
2018-04-23T07:54:52.854Z,100766.84
2018-04-23T07:59:54.194Z,100775.89
2018-04-23T08:04:55.502Z,100777.26
2018-04-23T08:15:02.479Z,100785.44
2018-04-23T08:20:03.818Z,100793.45
2018-04-23T08:25:05.158Z,100786.14
2018-04-23T08:30:06.573Z,100804.28
2018-04-23T08:35:07.891Z,100803.86
2018-04-23T08:40:09.237Z,100810.54
2018-04-23T08:45:11.334Z,100812.81
2018-04-23T08:50:12.683Z,100814.10
2018-04-23T08:55:14.079Z,100824.23
2018-04-23T09:00:15.517Z,100823.87
2018-04-23T09:05:16.810Z,100829.13
2018-04-23T09:10:18.887Z,100840.16
2018-04-23T09:15:20.211Z,100840.20
2018-04-23T09:20:22.279Z,100860.77
2018-04-23T09:25:23.595Z,100858.30
2018-04-23T09:30:24.930Z,100863.34
2018-04-23T09:35:26.313Z,100863.66
2018-04-23T09:40:27.622Z,100865.16
2018-04-23T09:45:28.942Z,100873.63
2018-04-23T09:50:30.278Z,100874.89
2018-04-23T09:55:31.638Z,100887.06
2018-04-23T10:00:33.718Z,100886.71
2018-04-23T10:05:35.042Z,100899.20
2018-04-23T10:10:37.099Z,100903.70
2018-04-23T10:15:38.446Z,100900.20
2018-04-23T10:20:40.500Z,100899.50
2018-04-23T10:25:41.823Z,100905.27
2018-04-23T10:30:43.886Z,100916.78
2018-04-23T10:35:45.223Z,100912.45
2018-04-23T10:40:46.554Z,100915.20
2018-04-23T10:45:48.113Z,100920.52
2018-04-23T10:50:50.181Z,100924.78
2018-04-23T10:55:51.501Z,100917.12
2018-04-23T11:00:54.402Z,100929.44
2018-04-23T11:05:55.779Z,100923.12
2018-04-23T11:10:57.110Z,100923.95
2018-04-23T11:15:59.180Z,100928.70
2018-04-23T11:21:00.491Z,100943.84
2018-04-23T11:26:01.834Z,100927.77
2018-04-23T11:31:03.138Z,100930.88
2018-04-23T11:36:04.468Z,100940.08
2018-04-23T11:41:05.774Z,100939.69
2018-04-23T11:46:07.863Z,100947.66
2018-04-23T11:51:16.030Z,100949.94
2018-04-23T11:56:17.359Z,100947.61
2018-04-23T12:01:18.690Z,100953.05
2018-04-23T12:06:20.010Z,100947.70
2018-04-23T12:11:21.334Z,100945.13
2018-04-23T12:16:22.651Z,100950.97
2018-04-23T12:21:23.966Z,100943.98
2018-04-23T12:26:26.020Z,100946.32
2018-04-23T12:31:27.334Z,100943.69
2018-04-23T12:36:28.902Z,100940.92
2018-04-23T12:41:31.026Z,100943.78
2018-04-23T12:46:32.434Z,100948.33
2018-04-23T12:51:33.741Z,100941.91
2018-04-23T12:56:35.791Z,100937.31
2018-04-23T13:01:37.106Z,100933.14
2018-04-23T13:06:38.405Z,100935.17
2018-04-23T13:11:39.722Z,100934.23
2018-04-23T13:16:41.039Z,100927.51
2018-04-23T13:21:42.359Z,100927.17
2018-04-23T13:26:50.734Z,100916.36
2018-04-23T13:31:52.059Z,100932.81
2018-04-23T13:36:53.419Z,100928.20
2018-04-23T13:41:55.514Z,100924.54
2018-04-23T13:46:57.586Z,100917.50
2018-04-23T13:51:58.935Z,100908.37
2018-04-23T13:57:01.060Z,100919.02
2018-04-23T14:02:02.476Z,100912.64
2018-04-23T14:07:03.809Z,100909.81
2018-04-23T14:12:05.899Z,100910.21
2018-04-23T14:17:07.228Z,100914.03
2018-04-23T14:22:08.562Z,100914.44
2018-04-23T14:27:09.874Z,100924.16
2018-04-23T14:32:11.198Z,100907.86
2018-04-23T14:37:12.535Z,100908.85
2018-04-23T14:42:13.878Z,100906.06
2018-04-23T14:47:15.206Z,100904.65
2018-04-23T14:52:16.562Z,100912.71
2018-04-23T14:57:17.891Z,100906.09
2018-04-23T15:02:19.218Z,100911.07
2018-04-23T15:07:21.274Z,100901.48
2018-04-23T15:12:22.607Z,100918.06
2018-04-23T15:17:24.678Z,100904.68
2018-04-23T15:22:26.093Z,100912.56
2018-04-23T15:27:27.414Z,100908.82
2018-04-23T15:32:28.715Z,100921.09
2018-04-23T15:37:30.044Z,100908.25
2018-04-23T15:42:31.380Z,100913.80
2018-04-23T15:47:32.699Z,100921.30
2018-04-23T15:52:34.018Z,100927.90
2018-04-23T15:57:35.352Z,100931.02
2018-04-23T16:02:36.719Z,100936.37
2018-04-23T16:07:38.043Z,100928.41
2018-04-23T16:12:39.381Z,100931.50
2018-04-23T16:17:40.754Z,100935.16
2018-04-23T16:22:42.096Z,100934.38
2018-04-23T16:27:43.459Z,100940.84
2018-04-23T16:32:44.789Z,100951.55
2018-04-23T16:37:46.119Z,100954.91
2018-04-23T16:42:47.559Z,100947.38
2018-04-23T16:47:49.733Z,100955.39
2018-04-23T16:52:51.087Z,100958.28
2018-04-23T16:57:52.447Z,100953.89
2018-04-23T17:02:53.771Z,100951.77
2018-04-23T17:07:55.140Z,100969.03
2018-04-23T17:12:57.263Z,100967.30
2018-04-23T17:17:58.719Z,100973.17
2018-04-23T17:23:00.051Z,100975.28
2018-04-23T17:28:01.395Z,100969.25
2018-04-23T17:33:03.484Z,100970.56
2018-04-23T17:38:05.559Z,100969.34
2018-04-23T17:43:06.927Z,100975.08
2018-04-23T17:48:08.247Z,100976.57
2018-04-23T17:53:09.606Z,100979.72
2018-04-23T17:58:10.938Z,100993.17
2018-04-23T18:03:12.279Z,101004.19
2018-04-23T18:08:14.381Z,101003.39
2018-04-23T18:13:15.817Z,101005.25
2018-04-23T18:18:17.199Z,100994.77
2018-04-23T18:23:18.558Z,101020.44
2018-04-23T18:28:19.924Z,101018.61
2018-04-23T18:33:22.059Z,101029.02
2018-04-23T18:38:23.408Z,101029.16
2018-04-23T18:43:25.539Z,101038.55
2018-04-23T18:48:26.874Z,101039.36
2018-04-23T18:53:28.223Z,101040.50
2018-04-23T18:58:29.975Z,101044.59
2018-04-23T19:03:31.354Z,101060.41
2018-04-23T19:13:40.788Z,101069.61
2018-04-23T19:18:42.150Z,101060.87
2018-04-23T19:23:43.530Z,101075.89
2018-04-23T19:28:44.968Z,101070.55
2018-04-23T19:33:46.287Z,101081.02
2018-04-23T19:38:48.366Z,101090.77
2018-04-23T19:43:49.731Z,101102.98
2018-04-23T19:48:51.070Z,101105.97
2018-04-23T19:53:52.426Z,101110.33
2018-04-23T19:58:53.775Z,101119.45
2018-04-23T20:03:55.328Z,101118.61
2018-04-23T20:08:56.652Z,101119.59
2018-04-23T20:13:58.005Z,101103.26
2018-04-23T20:18:59.358Z,101103.12
2018-04-23T20:24:00.716Z,101105.12
2018-04-23T20:29:03.014Z,101101.55
2018-04-23T20:34:04.350Z,101112.89
2018-04-23T20:39:05.726Z,101113.84
2018-04-23T20:44:07.091Z,101111.86
2018-04-23T20:49:09.195Z,101113.51
2018-04-23T20:54:11.257Z,101106.58
2018-04-23T20:59:12.588Z,101106.58
2018-04-23T21:04:13.907Z,101111.82
2018-04-23T21:09:15.238Z,101115.23
2018-04-23T21:14:16.576Z,101119.13
2018-04-23T21:19:18.627Z,101121.81
2018-04-23T21:24:19.953Z,101109.22
2018-04-23T21:29:21.279Z,101112.66
2018-04-23T21:34:22.585Z,101123.00
2018-04-23T21:39:23.918Z,101110.70
2018-04-23T21:44:25.312Z,101107.07
2018-04-23T21:49:26.646Z,101107.85
2018-04-23T21:54:27.976Z,101114.55
2018-04-23T21:59:29.335Z,101117.42
2018-04-23T22:04:30.686Z,101114.58
2018-04-23T22:09:32.747Z,101122.97
2018-04-23T22:14:34.115Z,101117.39
2018-04-23T22:19:36.142Z,101114.11
2018-04-23T22:24:37.480Z,101121.94
2018-04-23T22:29:39.525Z,101124.31
2018-04-23T22:34:40.859Z,101124.58
2018-04-23T22:39:42.939Z,101130.42
2018-04-23T22:44:44.269Z,101116.54
2018-04-23T22:49:46.322Z,101121.63
2018-04-23T22:54:47.655Z,101106.73
2018-04-23T22:59:48.970Z,101123.11
2018-04-23T23:04:50.318Z,101127.11
2018-04-23T23:09:51.659Z,101131.97
2018-04-23T23:14:53.034Z,101123.02
2018-04-23T23:19:55.083Z,101125.06
2018-04-23T23:24:56.434Z,101131.55
2018-04-23T23:29:57.758Z,101121.72
2018-04-23T23:34:59.110Z,101110.16
2018-04-23T23:40:00.475Z,101112.36
2018-04-23T23:45:02.591Z,101112.71
2018-04-23T23:50:04.686Z,101107.03
2018-04-23T23:55:06.045Z,101094.52
